Powell, OH

3:16 AM EST on March 04, 2015 (GMT -0500)
Liberty Road North | Change Station
CLOSE
Current Station
Personal Weather Station
Location: Powell, OH
Elevation: 935 ft
Nearby Weather Stations

Elev 935 ft 40.20 °N, 83.09 °W | Updated 2 days ago

Rain
Rain
34 °F
Feels Like 27 °F
N
8
Wind Variable Wind from West
Gusts mph

Today
High -- | Low -- °F
--% Chance of Precip.
Yesterday
High -- | Low -- °F
Precip. -- in
7:01 AM 6:27 PM
Waxing Gibbous, 98% visible
Pressure 29.87 in
Visibility 3.0 miles
Clouds Mostly Cloudy 900 ft
Overcast 4800 ft
Windchill 27 °F
Dew Point 32 °F
Humidity 93%
Rainfall 0.04 in
Snow Depth Not available.
UV 0 out of 12
Pollen .60 out of 12
Air Quality Not available.
Flu Activity Not available.
SPECI KOSU 040810Z AUTO 26004KT 3SM -RA BR BKN009 OVC048 01/01 A2987 RMK AO2 P0003 T00110006

More Conditions Fewer Conditions

Pressure 29.87 in
Visibility 3.0 miles
Clouds Mostly Cloudy 900 ft
Overcast 4800 ft
Windchill 27 °F
Dew Point 32 °F
Humidity 93%
Rainfall 0.04 in
Snow Depth Not available.
UV 0 out of 12
Pollen .60 out of 12
Air Quality Not available.
Flu Activity Not available.
SPECI KOSU 040810Z AUTO 26004KT 3SM -RA BR BKN009 OVC048 01/01 A2987 RMK AO2 P0003 T00110006

More Conditions Fewer Conditions

10-Day Weather Forecast

Almanac

Astronomy

Mar. 04, 2015 Rise Set
Actual Time
Civil Twilight
Nautical Twilight
Astronomical Twilight
Moon
Length of Visible Light
Length of Day
Tomorrow will be .
, % of the Moon is Illuminated

Today's Extremes

State Highs State Lows

Community

WunderPhotos

Upload Photos

1,802,416 photos uploaded!

WunderBlogs® & News

Nearby

Air Quality

  Air Quality AQ Index Pollutant
Not available.

Snow Depth

Station Depth Elevation

Earthquake Activity

City Distance Mag. Time & Date
Minimum magnitude displayed is 2.5.

Coastal Water Temperatures

Place Temperature

Nearby Weather Stations